sensor_id;sensor_type;location;lat;lon;timestamp;pressure;altitude;pressure_sealevel;temperature;humidity
52735;BME280;38631;47.572;10.704;2023-12-14T00:02:22;91428.13;;;2.32;100.00
52735;BME280;38631;47.572;10.704;2023-12-14T00:04:48;91431.03;;;2.31;100.00
52735;BME280;38631;47.572;10.704;2023-12-14T00:07:13;91433.34;;;2.13;100.00
52735;BME280;38631;47.572;10.704;2023-12-14T00:09:40;91440.91;;;2.15;100.00
52735;BME280;38631;47.572;10.704;2023-12-14T00:12:06;91426.75;;;1.68;100.00
52735;BME280;38631;47.572;10.704;2023-12-14T00:14:31;91436.47;;;1.91;100.00
52735;BME280;38631;47.572;10.704;2023-12-14T00:16:56;91432.50;;;1.94;100.00
52735;BME280;38631;47.572;10.704;2023-12-14T00:19:24;91451.25;;;1.77;100.00
52735;BME280;38631;47.572;10.704;2023-12-14T00:21:49;91447.47;;;1.64;100.00
52735;BME280;38631;47.572;10.704;2023-12-14T00:24:15;91445.97;;;1.58;100.00
52735;BME280;38631;47.572;10.704;2023-12-14T00:26:40;91455.66;;;1.28;100.00
52735;BME280;38631;47.572;10.704;2023-12-14T00:29:06;91447.00;;;1.57;100.00
52735;BME280;38631;47.572;10.704;2023-12-14T00:31:31;91449.59;;;1.33;100.00
52735;BME280;38631;47.572;10.704;2023-12-14T00:33:57;91452.03;;;1.54;100.00
52735;BME280;38631;47.572;10.704;2023-12-14T00:36:22;91458.09;;;1.73;100.00
52735;BME280;38631;47.572;10.704;2023-12-14T00:38:47;91457.81;;;1.50;100.00
52735;BME280;38631;47.572;10.704;2023-12-14T00:41:13;91464.84;;;1.50;100.00
52735;BME280;38631;47.572;10.704;2023-12-14T00:43:38;91465.94;;;1.73;100.00
52735;BME280;38631;47.572;10.704;2023-12-14T00:46:04;91462.34;;;1.93;100.00
52735;BME280;38631;47.572;10.704;2023-12-14T00:48:29;91468.97;;;1.85;100.00
52735;BME280;38631;47.572;10.704;2023-12-14T00:50:55;91479.00;;;1.78;100.00
52735;BME280;38631;47.572;10.704;2023-12-14T00:53:20;91478.22;;;1.78;100.00
52735;BME280;38631;47.572;10.704;2023-12-14T00:55:45;91478.28;;;1.97;100.00
52735;BME280;38631;47.572;10.704;2023-12-14T00:58:11;91480.00;;;1.82;100.00
52735;BME280;38631;47.572;10.704;2023-12-14T01:00:41;91495.31;;;1.94;100.00
52735;BME280;38631;47.572;10.704;2023-12-14T01:03:06;91487.19;;;1.95;100.00
52735;BME280;38631;47.572;10.704;2023-12-14T01:05:32;91507.03;;;2.02;100.00
52735;BME280;38631;47.572;10.704;2023-12-14T01:07:57;91506.06;;;1.92;100.00
52735;BME280;38631;47.572;10.704;2023-12-14T01:10:22;91509.75;;;1.91;100.00
52735;BME280;38631;47.572;10.704;2023-12-14T01:12:48;91511.50;;;2.01;100.00
52735;BME280;38631;47.572;10.704;2023-12-14T01:15:13;91521.13;;;2.06;100.00
52735;BME280;38631;47.572;10.704;2023-12-14T01:17:39;91510.22;;;1.99;100.00
52735;BME280;38631;47.572;10.704;2023-12-14T01:20:07;91522.69;;;2.07;100.00
52735;BME280;38631;47.572;10.704;2023-12-14T01:22:33;91523.56;;;1.97;100.00
52735;BME280;38631;47.572;10.704;2023-12-14T01:24:59;91536.03;;;2.05;100.00
52735;BME280;38631;47.572;10.704;2023-12-14T01:27:25;91536.00;;;2.10;100.00
52735;BME280;38631;47.572;10.704;2023-12-14T01:29:50;91534.66;;;2.13;100.00
52735;BME280;38631;47.572;10.704;2023-12-14T01:32:15;91526.84;;;1.84;100.00
52735;BME280;38631;47.572;10.704;2023-12-14T01:34:41;91522.22;;;1.70;100.00
52735;BME280;38631;47.572;10.704;2023-12-14T01:37:06;91531.66;;;2.01;100.00
52735;BME280;38631;47.572;10.704;2023-12-14T01:39:32;91533.38;;;2.10;100.00
52735;BME280;38631;47.572;10.704;2023-12-14T01:41:58;91544.31;;;2.17;100.00
52735;BME280;38631;47.572;10.704;2023-12-14T01:44:23;91545.13;;;2.13;100.00
52735;BME280;38631;47.572;10.704;2023-12-14T01:46:49;91554.72;;;1.99;100.00
52735;BME280;38631;47.572;10.704;2023-12-14T01:49:15;91553.53;;;2.10;100.00
52735;BME280;38631;47.572;10.704;2023-12-14T01:51:40;91565.81;;;2.14;100.00
52735;BME280;38631;47.572;10.704;2023-12-14T01:54:05;91553.13;;;1.98;100.00
52735;BME280;38631;47.572;10.704;2023-12-14T01:56:31;91563.28;;;2.04;100.00
52735;BME280;38631;47.572;10.704;2023-12-14T01:58:56;91566.06;;;2.13;100.00
52735;BME280;38631;47.572;10.704;2023-12-14T02:01:33;91566.38;;;2.11;100.00
52735;BME280;38631;47.572;10.704;2023-12-14T02:04:03;91570.72;;;2.21;100.00
52735;BME280;38631;47.572;10.704;2023-12-14T02:06:29;91569.19;;;2.15;100.00
52735;BME280;38631;47.572;10.704;2023-12-14T02:08:54;91580.41;;;2.21;100.00
52735;BME280;38631;47.572;10.704;2023-12-14T02:11:19;91572.91;;;2.14;100.00
52735;BME280;38631;47.572;10.704;2023-12-14T02:13:45;91578.34;;;2.17;100.00
52735;BME280;38631;47.572;10.704;2023-12-14T02:16:10;91580.38;;;2.26;100.00
52735;BME280;38631;47.572;10.704;2023-12-14T02:18:35;91594.19;;;2.31;100.00
52735;BME280;38631;47.572;10.704;2023-12-14T02:21:01;91590.97;;;2.40;100.00
52735;BME280;38631;47.572;10.704;2023-12-14T02:23:26;91598.56;;;2.41;100.00
52735;BME280;38631;47.572;10.704;2023-12-14T02:25:51;91605.44;;;2.32;100.00
52735;BME280;38631;47.572;10.704;2023-12-14T02:28:17;91601.59;;;2.24;100.00
52735;BME280;38631;47.572;10.704;2023-12-14T02:30:42;91609.91;;;2.31;100.00
52735;BME280;38631;47.572;10.704;2023-12-14T02:33:09;91605.09;;;2.14;100.00
52735;BME280;38631;47.572;10.704;2023-12-14T02:35:34;91601.41;;;2.15;100.00
52735;BME280;38631;47.572;10.704;2023-12-14T02:38:00;91613.63;;;2.25;100.00
52735;BME280;38631;47.572;10.704;2023-12-14T02:40:25;91620.66;;;2.30;100.00
52735;BME280;38631;47.572;10.704;2023-12-14T02:42:50;91614.84;;;2.33;100.00
52735;BME280;38631;47.572;10.704;2023-12-14T02:45:16;91626.09;;;2.38;100.00
52735;BME280;38631;47.572;10.704;2023-12-14T02:47:42;91624.50;;;2.37;100.00
52735;BME280;38631;47.572;10.704;2023-12-14T02:50:07;91627.69;;;2.34;100.00
52735;BME280;38631;47.572;10.704;2023-12-14T02:52:33;91643.63;;;2.09;100.00
52735;BME280;38631;47.572;10.704;2023-12-14T02:54:58;91631.78;;;2.16;100.00
52735;BME280;38631;47.572;10.704;2023-12-14T02:57:23;91649.53;;;2.25;100.00
52735;BME280;38631;47.572;10.704;2023-12-14T02:59:49;91643.56;;;2.19;100.00
52735;BME280;38631;47.572;10.704;2023-12-14T03:02:14;91638.78;;;1.92;100.00
52735;BME280;38631;47.572;10.704;2023-12-14T03:04:40;91642.00;;;1.84;100.00
52735;BME280;38631;47.572;10.704;2023-12-14T03:07:06;91649.25;;;1.92;100.00
52735;BME280;38631;47.572;10.704;2023-12-14T03:09:31;91660.94;;;2.05;100.00
52735;BME280;38631;47.572;10.704;2023-12-14T03:11:57;91652.88;;;2.01;100.00
52735;BME280;38631;47.572;10.704;2023-12-14T03:14:23;91656.88;;;2.23;100.00
52735;BME280;38631;47.572;10.704;2023-12-14T03:16:49;91657.97;;;1.82;100.00
52735;BME280;38631;47.572;10.704;2023-12-14T03:19:15;91654.28;;;1.88;100.00
52735;BME280;38631;47.572;10.704;2023-12-14T03:21:42;91668.69;;;1.86;100.00
52735;BME280;38631;47.572;10.704;2023-12-14T03:24:07;91661.97;;;2.09;100.00
52735;BME280;38631;47.572;10.704;2023-12-14T03:26:32;91665.41;;;2.04;100.00
52735;BME280;38631;47.572;10.704;2023-12-14T03:28:58;91667.94;;;2.14;100.00
52735;BME280;38631;47.572;10.704;2023-12-14T03:31:23;91673.13;;;2.20;100.00
52735;BME280;38631;47.572;10.704;2023-12-14T03:33:49;91674.88;;;2.29;100.00
52735;BME280;38631;47.572;10.704;2023-12-14T03:36:14;91680.25;;;2.14;100.00
52735;BME280;38631;47.572;10.704;2023-12-14T03:38:40;91686.13;;;2.30;100.00
52735;BME280;38631;47.572;10.704;2023-12-14T03:41:05;91688.84;;;2.20;100.00
52735;BME280;38631;47.572;10.704;2023-12-14T03:43:30;91700.06;;;2.25;100.00
52735;BME280;38631;47.572;10.704;2023-12-14T03:45:56;91705.75;;;2.32;100.00
52735;BME280;38631;47.572;10.704;2023-12-14T03:48:21;91691.13;;;2.31;100.00
52735;BME280;38631;47.572;10.704;2023-12-14T03:50:46;91700.72;;;2.41;100.00
52735;BME280;38631;47.572;10.704;2023-12-14T03:53:12;91705.72;;;2.37;100.00
52735;BME280;38631;47.572;10.704;2023-12-14T03:55:37;91718.22;;;2.46;100.00
52735;BME280;38631;47.572;10.704;2023-12-14T03:58:03;91715.16;;;2.04;100.00
52735;BME280;38631;47.572;10.704;2023-12-14T04:00:28;91724.88;;;1.99;100.00
52735;BME280;38631;47.572;10.704;2023-12-14T04:02:53;91724.38;;;1.97;100.00
52735;BME280;38631;47.572;10.704;2023-12-14T04:05:19;91728.50;;;2.03;100.00
52735;BME280;38631;47.572;10.704;2023-12-14T04:07:44;91729.53;;;2.07;100.00
52735;BME280;38631;47.572;10.704;2023-12-14T04:10:11;91734.31;;;1.94;100.00
52735;BME280;38631;47.572;10.704;2023-12-14T04:12:37;91740.63;;;1.93;100.00
52735;BME280;38631;47.572;10.704;2023-12-14T04:15:04;91740.91;;;1.87;100.00
52735;BME280;38631;47.572;10.704;2023-12-14T04:17:30;91750.03;;;1.94;100.00
52735;BME280;38631;47.572;10.704;2023-12-14T04:19:56;91741.84;;;2.06;100.00
52735;BME280;38631;47.572;10.704;2023-12-14T04:22:21;91757.91;;;2.34;100.00
52735;BME280;38631;47.572;10.704;2023-12-14T04:24:46;91760.03;;;2.27;100.00
52735;BME280;38631;47.572;10.704;2023-12-14T04:27:15;91768.25;;;2.10;100.00
52735;BME280;38631;47.572;10.704;2023-12-14T04:29:40;91773.38;;;2.25;100.00
52735;BME280;38631;47.572;10.704;2023-12-14T04:32:06;91768.63;;;2.32;100.00
52735;BME280;38631;47.572;10.704;2023-12-14T04:34:31;91775.09;;;2.06;100.00
52735;BME280;38631;47.572;10.704;2023-12-14T04:36:57;91787.16;;;2.02;100.00
52735;BME280;38631;47.572;10.704;2023-12-14T04:39:26;91789.50;;;2.08;100.00
52735;BME280;38631;47.572;10.704;2023-12-14T04:41:52;91791.63;;;2.41;100.00
52735;BME280;38631;47.572;10.704;2023-12-14T04:44:19;91794.09;;;2.27;100.00
52735;BME280;38631;47.572;10.704;2023-12-14T04:46:44;91791.66;;;2.35;100.00
52735;BME280;38631;47.572;10.704;2023-12-14T04:49:10;91796.19;;;2.25;100.00
52735;BME280;38631;47.572;10.704;2023-12-14T04:51:36;91796.59;;;1.98;100.00
52735;BME280;38631;47.572;10.704;2023-12-14T04:54:01;91798.69;;;1.95;100.00
52735;BME280;38631;47.572;10.704;2023-12-14T04:56:26;91808.81;;;2.12;100.00
52735;BME280;38631;47.572;10.704;2023-12-14T04:58:52;91815.81;;;2.27;100.00
52735;BME280;38631;47.572;10.704;2023-12-14T05:01:17;91814.41;;;1.95;100.00
52735;BME280;38631;47.572;10.704;2023-12-14T05:03:43;91815.72;;;1.93;100.00
52735;BME280;38631;47.572;10.704;2023-12-14T05:06:09;91820.41;;;2.06;100.00
52735;BME280;38631;47.572;10.704;2023-12-14T05:08:34;91824.22;;;2.24;100.00
52735;BME280;38631;47.572;10.704;2023-12-14T05:10:59;91837.44;;;2.04;100.00
52735;BME280;38631;47.572;10.704;2023-12-14T05:13:25;91837.16;;;2.00;100.00
52735;BME280;38631;47.572;10.704;2023-12-14T05:15:51;91828.03;;;1.98;100.00
52735;BME280;38631;47.572;10.704;2023-12-14T05:18:17;91834.31;;;1.97;100.00
52735;BME280;38631;47.572;10.704;2023-12-14T05:20:42;91830.66;;;1.92;100.00
52735;BME280;38631;47.572;10.704;2023-12-14T05:23:08;91839.03;;;1.94;100.00
52735;BME280;38631;47.572;10.704;2023-12-14T05:25:34;91842.94;;;2.02;100.00
52735;BME280;38631;47.572;10.704;2023-12-14T05:27:59;91851.94;;;2.30;100.00
52735;BME280;38631;47.572;10.704;2023-12-14T05:30:24;91849.03;;;2.37;100.00
52735;BME280;38631;47.572;10.704;2023-12-14T05:32:50;91857.38;;;2.44;100.00
52735;BME280;38631;47.572;10.704;2023-12-14T05:35:15;91863.91;;;2.47;100.00
52735;BME280;38631;47.572;10.704;2023-12-14T05:37:41;91857.47;;;2.29;100.00
52735;BME280;38631;47.572;10.704;2023-12-14T05:40:08;91868.16;;;2.37;100.00
52735;BME280;38631;47.572;10.704;2023-12-14T05:42:34;91864.94;;;2.46;100.00
52735;BME280;38631;47.572;10.704;2023-12-14T05:45:01;91866.53;;;2.47;100.00
52735;BME280;38631;47.572;10.704;2023-12-14T05:47:26;91875.91;;;2.08;100.00
52735;BME280;38631;47.572;10.704;2023-12-14T05:49:52;91878.97;;;2.26;100.00
52735;BME280;38631;47.572;10.704;2023-12-14T05:52:17;91877.28;;;2.40;100.00
52735;BME280;38631;47.572;10.704;2023-12-14T05:54:43;91883.88;;;2.32;100.00
52735;BME280;38631;47.572;10.704;2023-12-14T05:57:08;91899.06;;;2.35;100.00
52735;BME280;38631;47.572;10.704;2023-12-14T05:59:34;91889.09;;;2.37;100.00
52735;BME280;38631;47.572;10.704;2023-12-14T06:02:00;91892.25;;;2.34;100.00
52735;BME280;38631;47.572;10.704;2023-12-14T06:04:26;91897.31;;;2.26;100.00
52735;BME280;38631;47.572;10.704;2023-12-14T06:06:52;91906.72;;;2.27;100.00
52735;BME280;38631;47.572;10.704;2023-12-14T06:09:18;91909.63;;;2.20;100.00
52735;BME280;38631;47.572;10.704;2023-12-14T06:11:47;91916.16;;;2.23;100.00
52735;BME280;38631;47.572;10.704;2023-12-14T06:14:12;91923.97;;;2.28;100.00
52735;BME280;38631;47.572;10.704;2023-12-14T06:16:37;91928.72;;;2.31;100.00
52735;BME280;38631;47.572;10.704;2023-12-14T06:19:03;91925.31;;;2.25;100.00
52735;BME280;38631;47.572;10.704;2023-12-14T06:21:28;91937.56;;;2.35;100.00
52735;BME280;38631;47.572;10.704;2023-12-14T06:23:55;91937.31;;;2.36;100.00
52735;BME280;38631;47.572;10.704;2023-12-14T06:26:21;91941.53;;;2.32;100.00
52735;BME280;38631;47.572;10.704;2023-12-14T06:28:46;91937.88;;;2.28;100.00
52735;BME280;38631;47.572;10.704;2023-12-14T06:31:13;91940.22;;;2.30;100.00
52735;BME280;38631;47.572;10.704;2023-12-14T06:33:39;91942.06;;;2.29;100.00
52735;BME280;38631;47.572;10.704;2023-12-14T06:36:05;91958.31;;;2.31;100.00
52735;BME280;38631;47.572;10.704;2023-12-14T06:38:31;91954.63;;;2.32;100.00
52735;BME280;38631;47.572;10.704;2023-12-14T06:40:56;91963.53;;;2.36;100.00
52735;BME280;38631;47.572;10.704;2023-12-14T06:43:22;91966.13;;;2.36;100.00
52735;BME280;38631;47.572;10.704;2023-12-14T06:45:47;91965.88;;;2.33;100.00
52735;BME280;38631;47.572;10.704;2023-12-14T06:48:13;91980.84;;;2.22;100.00
52735;BME280;38631;47.572;10.704;2023-12-14T06:50:38;91987.09;;;2.36;100.00
52735;BME280;38631;47.572;10.704;2023-12-14T06:53:04;91988.66;;;2.37;100.00
52735;BME280;38631;47.572;10.704;2023-12-14T06:55:29;91986.56;;;2.40;100.00
52735;BME280;38631;47.572;10.704;2023-12-14T06:57:54;91995.16;;;2.45;100.00
52735;BME280;38631;47.572;10.704;2023-12-14T07:00:20;91994.94;;;2.42;100.00
52735;BME280;38631;47.572;10.704;2023-12-14T07:02:45;91987.34;;;2.40;100.00
52735;BME280;38631;47.572;10.704;2023-12-14T07:05:11;92013.56;;;2.35;100.00
52735;BME280;38631;47.572;10.704;2023-12-14T07:07:36;92010.38;;;2.38;100.00
52735;BME280;38631;47.572;10.704;2023-12-14T07:10:02;92024.81;;;2.35;100.00
52735;BME280;38631;47.572;10.704;2023-12-14T07:12:27;92031.59;;;2.47;100.00
52735;BME280;38631;47.572;10.704;2023-12-14T07:14:53;92028.19;;;2.46;100.00
52735;BME280;38631;47.572;10.704;2023-12-14T07:17:18;92020.09;;;2.37;100.00
52735;BME280;38631;47.572;10.704;2023-12-14T07:19:44;92029.25;;;2.40;100.00
52735;BME280;38631;47.572;10.704;2023-12-14T07:22:09;92021.41;;;2.35;100.00
52735;BME280;38631;47.572;10.704;2023-12-14T07:24:34;92031.34;;;2.38;100.00
52735;BME280;38631;47.572;10.704;2023-12-14T07:27:00;92043.38;;;2.49;100.00
52735;BME280;38631;47.572;10.704;2023-12-14T07:29:25;92039.19;;;2.43;100.00
52735;BME280;38631;47.572;10.704;2023-12-14T07:31:52;92047.59;;;2.35;100.00
52735;BME280;38631;47.572;10.704;2023-12-14T07:34:17;92054.72;;;2.19;100.00
52735;BME280;38631;47.572;10.704;2023-12-14T07:36:43;92053.63;;;2.30;100.00
52735;BME280;38631;47.572;10.704;2023-12-14T07:39:08;92060.47;;;2.26;100.00
52735;BME280;38631;47.572;10.704;2023-12-14T07:41:34;92069.88;;;2.32;100.00
52735;BME280;38631;47.572;10.704;2023-12-14T07:44:00;92083.25;;;2.36;100.00
52735;BME280;38631;47.572;10.704;2023-12-14T07:46:26;92090.06;;;2.37;100.00
52735;BME280;38631;47.572;10.704;2023-12-14T07:48:51;92088.19;;;2.43;100.00
52735;BME280;38631;47.572;10.704;2023-12-14T07:51:17;92090.31;;;2.35;100.00
52735;BME280;38631;47.572;10.704;2023-12-14T07:53:42;92083.78;;;2.23;100.00
52735;BME280;38631;47.572;10.704;2023-12-14T07:56:08;92100.81;;;2.25;100.00
52735;BME280;38631;47.572;10.704;2023-12-14T07:58:33;92093.50;;;2.12;100.00
52735;BME280;38631;47.572;10.704;2023-12-14T08:00:59;92097.16;;;2.16;100.00
52735;BME280;38631;47.572;10.704;2023-12-14T08:03:24;92098.97;;;2.05;100.00
52735;BME280;38631;47.572;10.704;2023-12-14T08:05:50;92111.28;;;2.25;100.00
52735;BME280;38631;47.572;10.704;2023-12-14T08:08:16;92106.34;;;2.13;100.00
52735;BME280;38631;47.572;10.704;2023-12-14T08:10:41;92104.22;;;2.21;100.00
52735;BME280;38631;47.572;10.704;2023-12-14T08:13:07;92109.47;;;2.26;100.00
52735;BME280;38631;47.572;10.704;2023-12-14T08:15:32;92111.03;;;2.27;100.00
52735;BME280;38631;47.572;10.704;2023-12-14T08:17:58;92111.28;;;2.10;100.00
52735;BME280;38631;47.572;10.704;2023-12-14T08:20:23;92113.66;;;2.11;100.00
52735;BME280;38631;47.572;10.704;2023-12-14T08:22:48;92106.06;;;2.00;100.00
52735;BME280;38631;47.572;10.704;2023-12-14T08:25:14;92099.78;;;1.90;100.00
52735;BME280;38631;47.572;10.704;2023-12-14T08:27:40;92115.50;;;2.01;100.00
52735;BME280;38631;47.572;10.704;2023-12-14T08:30:06;92122.84;;;1.99;100.00
52735;BME280;38631;47.572;10.704;2023-12-14T08:32:32;92117.84;;;2.02;100.00
52735;BME280;38631;47.572;10.704;2023-12-14T08:34:58;92118.63;;;2.13;100.00
52735;BME280;38631;47.572;10.704;2023-12-14T08:37:23;92139.06;;;2.16;100.00
52735;BME280;38631;47.572;10.704;2023-12-14T08:39:49;92146.13;;;2.31;100.00
52735;BME280;38631;47.572;10.704;2023-12-14T08:42:14;92151.38;;;2.36;100.00
52735;BME280;38631;47.572;10.704;2023-12-14T08:44:41;92147.91;;;2.46;100.00
52735;BME280;38631;47.572;10.704;2023-12-14T08:47:06;92155.78;;;2.46;100.00
52735;BME280;38631;47.572;10.704;2023-12-14T08:49:34;92156.81;;;2.55;100.00
52735;BME280;38631;47.572;10.704;2023-12-14T08:52:00;92154.50;;;2.53;100.00
52735;BME280;38631;47.572;10.704;2023-12-14T08:54:25;92167.06;;;2.62;100.00
52735;BME280;38631;47.572;10.704;2023-12-14T08:56:51;92169.72;;;2.36;100.00
52735;BME280;38631;47.572;10.704;2023-12-14T08:59:17;92178.34;;;2.47;100.00
52735;BME280;38631;47.572;10.704;2023-12-14T09:01:44;92180.97;;;2.42;100.00
52735;BME280;38631;47.572;10.704;2023-12-14T09:04:10;92172.56;;;2.34;100.00
52735;BME280;38631;47.572;10.704;2023-12-14T09:06:35;92186.72;;;2.49;100.00
52735;BME280;38631;47.572;10.704;2023-12-14T09:09:01;92188.28;;;2.55;100.00
52735;BME280;38631;47.572;10.704;2023-12-14T09:11:26;92182.50;;;2.58;100.00
52735;BME280;38631;47.572;10.704;2023-12-14T09:13:51;92183.84;;;2.35;100.00
52735;BME280;38631;47.572;10.704;2023-12-14T09:16:17;92195.59;;;2.53;100.00
52735;BME280;38631;47.572;10.704;2023-12-14T09:18:42;92200.84;;;2.58;100.00
52735;BME280;38631;47.572;10.704;2023-12-14T09:21:08;92209.50;;;2.74;100.00
52735;BME280;38631;47.572;10.704;2023-12-14T09:23:33;92196.63;;;2.77;100.00
52735;BME280;38631;47.572;10.704;2023-12-14T09:25:59;92191.69;;;2.76;100.00
52735;BME280;38631;47.572;10.704;2023-12-14T09:28:25;92214.22;;;2.72;100.00
52735;BME280;38631;47.572;10.704;2023-12-14T09:30:51;92220.75;;;2.90;100.00
52735;BME280;38631;47.572;10.704;2023-12-14T09:33:17;92226.50;;;2.92;100.00
52735;BME280;38631;47.572;10.704;2023-12-14T09:35:42;92217.59;;;2.88;100.00
52735;BME280;38631;47.572;10.704;2023-12-14T09:38:09;92215.00;;;2.77;100.00
52735;BME280;38631;47.572;10.704;2023-12-14T09:40:34;92216.31;;;2.75;100.00
52735;BME280;38631;47.572;10.704;2023-12-14T09:43:00;92226.25;;;2.83;100.00
52735;BME280;38631;47.572;10.704;2023-12-14T09:45:30;92230.19;;;2.75;100.00
52735;BME280;38631;47.572;10.704;2023-12-14T09:47:56;92245.13;;;2.90;100.00
52735;BME280;38631;47.572;10.704;2023-12-14T09:50:23;92234.63;;;2.90;100.00
52735;BME280;38631;47.572;10.704;2023-12-14T09:52:49;92246.94;;;2.95;100.00
52735;BME280;38631;47.572;10.704;2023-12-14T09:55:15;92241.72;;;2.90;100.00
52735;BME280;38631;47.572;10.704;2023-12-14T09:57:40;92237.00;;;2.97;100.00
52735;BME280;38631;47.572;10.704;2023-12-14T10:00:06;92231.75;;;2.97;100.00
52735;BME280;38631;47.572;10.704;2023-12-14T10:02:35;92231.47;;;2.98;100.00
52735;BME280;38631;47.572;10.704;2023-12-14T10:05:01;92240.13;;;3.04;100.00
52735;BME280;38631;47.572;10.704;2023-12-14T10:07:27;92260.56;;;3.17;100.00
52735;BME280;38631;47.572;10.704;2023-12-14T10:09:52;92261.63;;;3.16;100.00
52735;BME280;38631;47.572;10.704;2023-12-14T10:12:21;92256.13;;;3.02;100.00
52735;BME280;38631;47.572;10.704;2023-12-14T10:14:49;92265.81;;;3.02;100.00
52735;BME280;38631;47.572;10.704;2023-12-14T10:17:25;92260.84;;;3.00;100.00
52735;BME280;38631;47.572;10.704;2023-12-14T10:20:00;92259.78;;;3.07;100.00
52735;BME280;38631;47.572;10.704;2023-12-14T10:22:29;92262.13;;;3.08;100.00
52735;BME280;38631;47.572;10.704;2023-12-14T10:24:57;92276.31;;;3.07;100.00
52735;BME280;38631;47.572;10.704;2023-12-14T10:27:23;92262.16;;;2.98;100.00
52735;BME280;38631;47.572;10.704;2023-12-14T10:29:48;92280.75;;;3.12;100.00
52735;BME280;38631;47.572;10.704;2023-12-14T10:32:16;92274.19;;;3.14;100.00
52735;BME280;38631;47.572;10.704;2023-12-14T10:34:43;92263.19;;;3.07;100.00
52735;BME280;38631;47.572;10.704;2023-12-14T10:37:08;92285.75;;;3.08;100.00
52735;BME280;38631;47.572;10.704;2023-12-14T10:39:34;92280.00;;;3.01;100.00
52735;BME280;38631;47.572;10.704;2023-12-14T10:42:02;92286.28;;;3.00;100.00
52735;BME280;38631;47.572;10.704;2023-12-14T10:44:30;92288.38;;;2.93;100.00
52735;BME280;38631;47.572;10.704;2023-12-14T10:46:59;92292.59;;;3.04;100.00
52735;BME280;38631;47.572;10.704;2023-12-14T10:49:25;92293.63;;;2.88;100.00
52735;BME280;38631;47.572;10.704;2023-12-14T10:51:54;92297.84;;;2.89;100.00
52735;BME280;38631;47.572;10.704;2023-12-14T10:54:25;92287.34;;;2.89;100.00
52735;BME280;38631;47.572;10.704;2023-12-14T10:56:55;92303.59;;;2.96;100.00
52735;BME280;38631;47.572;10.704;2023-12-14T10:59:21;92312.53;;;2.74;100.00
52735;BME280;38631;47.572;10.704;2023-12-14T11:01:51;92293.09;;;2.65;100.00
52735;BME280;38631;47.572;10.704;2023-12-14T11:04:18;92310.16;;;2.83;100.00
52735;BME280;38631;47.572;10.704;2023-12-14T11:06:45;92318.00;;;2.88;100.00
52735;BME280;38631;47.572;10.704;2023-12-14T11:09:13;92316.16;;;2.68;100.00
52735;BME280;38631;47.572;10.704;2023-12-14T11:14:18;92333.75;;;2.83;100.00
52735;BME280;38631;47.572;10.704;2023-12-14T11:16:44;92334.53;;;2.68;100.00
52735;BME280;38631;47.572;10.704;2023-12-14T11:21:46;92332.97;;;3.03;100.00
52735;BME280;38631;47.572;10.704;2023-12-14T11:24:12;92334.56;;;3.04;100.00
52735;BME280;38631;47.572;10.704;2023-12-14T11:26:38;92336.09;;;3.10;100.00
52735;BME280;38631;47.572;10.704;2023-12-14T11:29:03;92351.84;;;3.10;100.00
52735;BME280;38631;47.572;10.704;2023-12-14T11:31:29;92346.34;;;2.81;100.00
52735;BME280;38631;47.572;10.704;2023-12-14T11:33:55;92343.72;;;2.96;100.00
52735;BME280;38631;47.572;10.704;2023-12-14T11:36:26;92351.31;;;3.08;100.00
52735;BME280;38631;47.572;10.704;2023-12-14T11:38:51;92344.75;;;3.11;100.00
52735;BME280;38631;47.572;10.704;2023-12-14T11:41:22;92348.97;;;3.01;100.00
52735;BME280;38631;47.572;10.704;2023-12-14T11:43:50;92350.53;;;3.08;100.00
52735;BME280;38631;47.572;10.704;2023-12-14T11:46:16;92346.59;;;3.00;100.00
52735;BME280;38631;47.572;10.704;2023-12-14T11:48:45;92342.41;;;3.04;100.00
52735;BME280;38631;47.572;10.704;2023-12-14T11:51:19;92358.41;;;2.97;100.00
52735;BME280;38631;47.572;10.704;2023-12-14T11:53:46;92363.41;;;3.04;100.00
52735;BME280;38631;47.572;10.704;2023-12-14T11:56:12;92360.78;;;3.04;100.00
52735;BME280;38631;47.572;10.704;2023-12-14T11:58:41;92374.94;;;2.98;100.00
52735;BME280;38631;47.572;10.704;2023-12-14T12:01:18;92360.25;;;2.92;100.00
52735;BME280;38631;47.572;10.704;2023-12-14T12:03:45;92373.59;;;3.06;100.00
52735;BME280;38631;47.572;10.704;2023-12-14T12:06:24;92370.47;;;3.14;100.00
52735;BME280;38631;47.572;10.704;2023-12-14T12:08:50;92375.19;;;3.22;100.00
52735;BME280;38631;47.572;10.704;2023-12-14T12:11:19;92371.50;;;3.23;100.00
52735;BME280;38631;47.572;10.704;2023-12-14T12:13:49;92380.44;;;3.32;100.00
52735;BME280;38631;47.572;10.704;2023-12-14T12:16:15;92369.97;;;3.07;100.00
52735;BME280;38631;47.572;10.704;2023-12-14T12:18:40;92390.16;;;3.16;100.00
52735;BME280;38631;47.572;10.704;2023-12-14T12:21:06;92388.84;;;3.14;100.00
52735;BME280;38631;47.572;10.704;2023-12-14T12:23:33;92378.59;;;3.02;100.00
52735;BME280;38631;47.572;10.704;2023-12-14T12:25:58;92379.38;;;2.97;100.00
52735;BME280;38631;47.572;10.704;2023-12-14T12:28:24;92385.94;;;3.15;100.00
52735;BME280;38631;47.572;10.704;2023-12-14T12:30:49;92393.56;;;3.17;100.00
52735;BME280;38631;47.572;10.704;2023-12-14T12:33:15;92387.78;;;2.94;100.00
52735;BME280;38631;47.572;10.704;2023-12-14T12:35:40;92397.22;;;2.95;100.00
52735;BME280;38631;47.572;10.704;2023-12-14T12:38:05;92388.81;;;2.98;100.00
52735;BME280;38631;47.572;10.704;2023-12-14T12:40:31;92399.31;;;2.88;100.00
52735;BME280;38631;47.572;10.704;2023-12-14T12:42:58;92400.59;;;2.80;100.00
52735;BME280;38631;47.572;10.704;2023-12-14T12:45:23;92400.91;;;2.94;100.00
52735;BME280;38631;47.572;10.704;2023-12-14T12:47:52;92403.75;;;2.88;100.00
52735;BME280;38631;47.572;10.704;2023-12-14T12:50:18;92399.56;;;2.81;100.00